Time;durP1;ratioP1;P1;durP2;ratioP2;P2;SDS_P1;SDS_P2;PMS_P1;PMS_P2;Temp;Humidity;BMP_temperature;BMP_pressure;BME280_temperature;BME280_humidity;BME280_pressure;Samples;Min_cycle;Max_cycle;Signal;HPM_P1;HPM_P2
2023/03/21 00:00:18;;;;;;;59.83;29.90;;;;;;;;;;5023715;28;20629;-66
2023/03/21 00:02:44;;;;;;;53.25;26.52;;;;;;;;;;5014834;28;20194;-66
2023/03/21 00:05:09;;;;;;;46.58;26.08;;;;;;;;;;5014706;28;20305;-67
2023/03/21 00:07:34;;;;;;;56.10;27.05;;;;;;;;;;5028152;28;20237;-66
2023/03/21 00:10:00;;;;;;;57.90;28.25;;;;;;;;;;5015422;28;20217;-67
2023/03/21 00:12:25;;;;;;;59.08;27.67;;;;;;;;;;5026554;28;20198;-67
2023/03/21 00:14:52;;;;;;;49.17;26.42;;;;;;;;;;5027678;28;20191;-67
2023/03/21 00:17:21;;;;;;;59.30;28.75;;;;;;;;;;5013963;28;20193;-66
2023/03/21 00:19:47;;;;;;;53.40;28.00;;;;;;;;;;5027477;28;20672;-66
2023/03/21 00:22:13;;;;;;;53.17;27.65;;;;;;;;;;5017255;28;20721;-67
2023/03/21 00:24:39;;;;;;;48.05;25.67;;;;;;;;;;5026213;28;20214;-66
2023/03/21 00:27:04;;;;;;;53.75;27.83;;;;;;;;;;5028864;28;20595;-67
2023/03/21 00:29:30;;;;;;;57.00;27.88;;;;;;;;;;5020457;28;20190;-66
2023/03/21 00:31:55;;;;;;;55.95;25.67;;;;;;;;;;5022548;28;20255;-65
2023/03/21 00:34:20;;;;;;;49.67;28.15;;;;;;;;;;5018426;28;20545;-65
2023/03/21 00:36:46;;;;;;;58.35;26.48;;;;;;;;;;5018243;28;20195;-65
2023/03/21 00:39:13;;;;;;;58.67;26.95;;;;;;;;;;5022703;28;20981;-65
2023/03/21 00:41:38;;;;;;;53.85;26.75;;;;;;;;;;5024599;28;20293;-65
2023/03/21 00:44:04;;;;;;;48.55;26.40;;;;;;;;;;5017342;28;20301;-65
2023/03/21 00:46:29;;;;;;;54.38;25.42;;;;;;;;;;5022584;28;20190;-66
2023/03/21 00:48:55;;;;;;;46.35;26.10;;;;;;;;;;5024420;28;20221;-66
2023/03/21 00:51:25;;;;;;;59.22;26.13;;;;;;;;;;5026846;28;20721;-67
2023/03/21 00:53:54;;;;;;;45.45;24.17;;;;;;;;;;5023122;28;20608;-67
2023/03/21 00:56:20;;;;;;;56.00;25.98;;;;;;;;;;5021592;28;20624;-67
2023/03/21 00:58:45;;;;;;;51.10;25.05;;;;;;;;;;5027297;28;20226;-66
2023/03/21 01:01:11;;;;;;;58.92;25.88;;;;;;;;;;5026085;28;20218;-67
2023/03/21 01:03:41;;;;;;;52.35;26.00;;;;;;;;;;5020321;28;20265;-67
2023/03/21 01:06:12;;;;;;;51.65;26.25;;;;;;;;;;5027141;28;20244;-66
2023/03/21 01:08:40;;;;;;;47.85;25.42;;;;;;;;;;5029960;28;20196;-66
2023/03/21 01:11:10;;;;;;;51.33;25.08;;;;;;;;;;5022563;28;20661;-66
2023/03/21 01:13:35;;;;;;;52.15;25.45;;;;;;;;;;5025523;28;20255;-65
2023/03/21 01:16:02;;;;;;;56.08;25.42;;;;;;;;;;5025051;28;20197;-65
2023/03/21 01:18:29;;;;;;;43.08;23.83;;;;;;;;;;5018112;28;20186;-65
2023/03/21 01:20:56;;;;;;;44.60;24.90;;;;;;;;;;5018333;28;20591;-65
2023/03/21 01:23:22;;;;;;;49.97;24.52;;;;;;;;;;5012892;28;20217;-65
2023/03/21 01:25:49;;;;;;;48.50;24.63;;;;;;;;;;5025763;28;20658;-66
2023/03/21 01:28:15;;;;;;;55.75;26.27;;;;;;;;;;5016819;28;20314;-65
2023/03/21 01:30:46;;;;;;;57.78;26.58;;;;;;;;;;5017387;28;20878;-65
2023/03/21 01:33:12;;;;;;;46.08;24.15;;;;;;;;;;5025703;28;20289;-66
2023/03/21 01:35:37;;;;;;;54.35;26.27;;;;;;;;;;5012370;28;20198;-65
2023/03/21 01:38:03;;;;;;;44.38;23.60;;;;;;;;;;5021066;28;20721;-65
2023/03/21 01:40:29;;;;;;;50.22;25.33;;;;;;;;;;5025380;28;20216;-65
2023/03/21 01:42:55;;;;;;;47.88;23.38;;;;;;;;;;5025129;28;20240;-66
2023/03/21 01:45:57;;;;;;;48.83;25.00;;;;;;;;;;5021041;28;20205;-65
2023/03/21 01:48:24;;;;;;;46.90;25.02;;;;;;;;;;5016907;28;20193;-66
2023/03/21 01:50:50;;;;;;;51.63;23.85;;;;;;;;;;5018949;28;20281;-65
2023/03/21 01:53:19;;;;;;;48.20;25.52;;;;;;;;;;5010927;28;20259;-66
2023/03/21 01:55:46;;;;;;;50.65;24.13;;;;;;;;;;5026225;28;20224;-66
2023/03/21 01:58:17;;;;;;;43.45;22.08;;;;;;;;;;5026239;28;20248;-66
2023/03/21 02:00:46;;;;;;;45.85;25.02;;;;;;;;;;5020845;28;20550;-66
2023/03/21 02:03:15;;;;;;;47.53;25.95;;;;;;;;;;5022270;28;20616;-66
2023/03/21 02:05:59;;;;;;;45.50;24.55;;;;;;;;;;5026723;28;20271;-66
2023/03/21 02:08:25;;;;;;;51.80;26.00;;;;;;;;;;5027665;28;20186;-65
2023/03/21 02:10:51;;;;;;;54.03;25.45;;;;;;;;;;5026349;28;20501;-66
2023/03/21 02:13:18;;;;;;;46.28;26.83;;;;;;;;;;5025479;28;20194;-65
2023/03/21 02:16:00;;;;;;;49.00;25.95;;;;;;;;;;5026599;28;20293;-66
2023/03/21 02:18:25;;;;;;;45.67;25.58;;;;;;;;;;5027443;28;20193;-65
2023/03/21 02:21:53;;;;;;;43.63;26.30;;;;;;;;;;5024677;28;20212;-66
2023/03/21 02:24:52;;;;;;;41.13;24.67;;;;;;;;;;4984651;28;20234;-65
2023/03/21 02:27:22;;;;;;;49.30;26.08;;;;;;;;;;4983014;28;20246;-66
2023/03/21 02:30:25;;;;;;;43.25;25.92;;;;;;;;;;5005852;28;20198;-66
2023/03/21 02:32:57;;;;;;;45.80;26.80;;;;;;;;;;5027001;28;20202;-66
2023/03/21 02:35:48;;;;;;;40.25;25.17;;;;;;;;;;5017267;28;20179;-66
2023/03/21 02:38:41;;;;;;;49.15;26.40;;;;;;;;;;5019640;28;20275;-66
2023/03/21 02:41:17;;;;;;;45.17;26.17;;;;;;;;;;5023793;28;20195;-66
2023/03/21 02:44:06;;;;;;;42.92;26.30;;;;;;;;;;5015485;28;20610;-66
2023/03/21 02:46:40;;;;;;;43.30;24.70;;;;;;;;;;5019270;28;20705;-66
2023/03/21 02:49:31;;;;;;;52.85;26.70;;;;;;;;;;5011882;28;20178;-65
2023/03/21 02:51:58;;;;;;;48.03;25.77;;;;;;;;;;5029352;28;20186;-66
2023/03/21 02:54:26;;;;;;;48.45;27.30;;;;;;;;;;5026588;28;20197;-66
2023/03/21 02:56:54;;;;;;;45.17;26.33;;;;;;;;;;5029350;28;20194;-66
2023/03/21 02:59:22;;;;;;;44.80;25.42;;;;;;;;;;5016857;28;20546;-66
2023/03/21 03:01:51;;;;;;;53.33;25.20;;;;;;;;;;5034585;28;20384;-66
2023/03/21 03:04:22;;;;;;;47.65;25.52;;;;;;;;;;5026907;28;20213;-65
2023/03/21 03:06:59;;;;;;;42.70;24.73;;;;;;;;;;5021969;28;20218;-66
2023/03/21 03:09:46;;;;;;;43.30;23.55;;;;;;;;;;5015285;28;20672;-66
2023/03/21 03:12:36;;;;;;;43.25;22.52;;;;;;;;;;5028799;28;20194;-66
2023/03/21 03:15:22;;;;;;;33.80;20.60;;;;;;;;;;5028859;28;20197;-66
2023/03/21 03:18:05;;;;;;;41.17;22.83;;;;;;;;;;5028774;28;20819;-66
2023/03/21 03:20:53;;;;;;;35.85;21.45;;;;;;;;;;5029207;28;20280;-65
2023/03/21 03:23:36;;;;;;;37.50;21.77;;;;;;;;;;5015010;28;20609;-66
2023/03/21 03:26:29;;;;;;;37.15;22.17;;;;;;;;;;5021177;28;20190;-66
2023/03/21 03:29:02;;;;;;;36.83;22.13;;;;;;;;;;5021178;28;20519;-66
2023/03/21 03:31:32;;;;;;;33.85;21.63;;;;;;;;;;5014899;28;20215;-65
2023/03/21 03:34:02;;;;;;;34.72;20.48;;;;;;;;;;5022781;28;20248;-66
2023/03/21 03:36:35;;;;;;;32.08;20.52;;;;;;;;;;5028429;28;20266;-66
2023/03/21 03:39:06;;;;;;;37.35;21.60;;;;;;;;;;5020106;28;20939;-65
2023/03/21 03:41:35;;;;;;;32.08;20.92;;;;;;;;;;5026303;28;20213;-66
2023/03/21 03:44:01;;;;;;;32.67;20.27;;;;;;;;;;5021365;28;20210;-66
2023/03/21 03:46:35;;;;;;;32.85;20.63;;;;;;;;;;5019017;28;20609;-66
2023/03/21 03:49:06;;;;;;;31.63;21.08;;;;;;;;;;5022298;28;20221;-66
2023/03/21 03:51:37;;;;;;;28.90;20.48;;;;;;;;;;5025754;28;20198;-65
2023/03/21 03:54:18;;;;;;;33.15;21.67;;;;;;;;;;5024843;28;20535;-66
2023/03/21 03:56:44;;;;;;;33.15;20.27;;;;;;;;;;5027625;28;20542;-65
2023/03/21 03:59:09;;;;;;;31.75;20.63;;;;;;;;;;5012657;28;20773;-66
2023/03/21 04:01:35;;;;;;;30.75;21.10;;;;;;;;;;5025416;28;20304;-66
2023/03/21 04:04:00;;;;;;;38.65;21.20;;;;;;;;;;5023731;28;20226;-65
2023/03/21 04:06:27;;;;;;;32.78;21.83;;;;;;;;;;5021549;28;20309;-66
2023/03/21 04:08:55;;;;;;;34.63;21.85;;;;;;;;;;5026768;28;20190;-66
2023/03/21 04:11:20;;;;;;;35.38;21.35;;;;;;;;;;5025501;28;20186;-66
2023/03/21 04:13:46;;;;;;;35.03;21.63;;;;;;;;;;5016575;28;20198;-66
2023/03/21 04:16:11;;;;;;;32.97;21.52;;;;;;;;;;5024207;28;20669;-66
2023/03/21 04:18:38;;;;;;;34.38;20.60;;;;;;;;;;5015992;28;20540;-66
2023/03/21 04:21:11;;;;;;;32.40;20.40;;;;;;;;;;5021406;28;20556;-66
2023/03/21 04:23:37;;;;;;;28.90;19.25;;;;;;;;;;5026515;28;20475;-66
2023/03/21 04:26:04;;;;;;;31.33;20.50;;;;;;;;;;5017644;28;20197;-66
2023/03/21 04:28:29;;;;;;;36.17;20.92;;;;;;;;;;5018295;28;20225;-66
2023/03/21 04:30:56;;;;;;;33.33;20.88;;;;;;;;;;5027041;28;20597;-66
2023/03/21 04:33:24;;;;;;;36.65;21.83;;;;;;;;;;5023590;28;20265;-66
2023/03/21 04:35:55;;;;;;;38.38;21.65;;;;;;;;;;5023854;28;20194;-66
2023/03/21 04:38:22;;;;;;;35.88;22.25;;;;;;;;;;5015497;28;20186;-65
2023/03/21 04:40:47;;;;;;;36.75;21.58;;;;;;;;;;5019169;28;20212;-66
2023/03/21 04:43:13;;;;;;;39.40;22.27;;;;;;;;;;5021092;28;20713;-65
2023/03/21 04:45:38;;;;;;;36.30;22.40;;;;;;;;;;5021118;28;20234;-65
2023/03/21 04:48:04;;;;;;;35.70;22.13;;;;;;;;;;5011103;28;20195;-65
2023/03/21 04:50:31;;;;;;;35.72;23.02;;;;;;;;;;5025850;28;20544;-66
2023/03/21 04:52:56;;;;;;;39.55;22.88;;;;;;;;;;5024898;28;20186;-66
2023/03/21 04:55:23;;;;;;;41.67;23.60;;;;;;;;;;5013066;28;20665;-66
2023/03/21 04:57:49;;;;;;;40.10;23.02;;;;;;;;;;5015707;28;20592;-66
2023/03/21 05:00:15;;;;;;;36.53;22.15;;;;;;;;;;5018572;28;20236;-65
2023/03/21 05:02:41;;;;;;;34.75;24.05;;;;;;;;;;5016899;28;20195;-65
2023/03/21 05:05:10;;;;;;;38.67;23.63;;;;;;;;;;5014231;28;20255;-66
2023/03/21 05:07:39;;;;;;;40.80;23.13;;;;;;;;;;5016217;28;20193;-65
2023/03/21 05:10:06;;;;;;;38.45;23.90;;;;;;;;;;5023744;28;20651;-65
2023/03/21 05:12:31;;;;;;;35.92;22.73;;;;;;;;;;5023392;28;20818;-66
2023/03/21 05:14:57;;;;;;;34.45;22.50;;;;;;;;;;5018816;28;20206;-65
2023/03/21 05:17:23;;;;;;;37.95;23.38;;;;;;;;;;5019627;28;20521;-65
2023/03/21 05:19:51;;;;;;;36.53;22.63;;;;;;;;;;5029492;28;20607;-65
2023/03/21 05:22:18;;;;;;;39.20;23.65;;;;;;;;;;5020751;28;20187;-65
2023/03/21 05:24:48;;;;;;;38.47;22.77;;;;;;;;;;5014951;28;20223;-66
2023/03/21 05:27:35;;;;;;;39.75;23.45;;;;;;;;;;5026395;28;20252;-66
2023/03/21 05:30:05;;;;;;;39.80;22.17;;;;;;;;;;5026149;28;20189;-66
2023/03/21 05:32:31;;;;;;;41.08;22.23;;;;;;;;;;5016582;28;20273;-65
2023/03/21 05:34:56;;;;;;;42.70;22.52;;;;;;;;;;5018725;28;20285;-66
2023/03/21 05:37:22;;;;;;;37.15;22.73;;;;;;;;;;5022973;28;20205;-66
2023/03/21 05:39:47;;;;;;;37.10;22.58;;;;;;;;;;5026035;28;20247;-66
2023/03/21 05:42:13;;;;;;;38.38;21.90;;;;;;;;;;5016679;28;20209;-66
2023/03/21 05:44:39;;;;;;;39.92;21.80;;;;;;;;;;5021037;28;20712;-66
2023/03/21 05:47:05;;;;;;;38.20;20.50;;;;;;;;;;5023193;28;20208;-67
2023/03/21 05:49:31;;;;;;;40.17;20.42;;;;;;;;;;5021700;28;20186;-67
2023/03/21 05:51:56;;;;;;;36.75;19.95;;;;;;;;;;5025096;28;20186;-66
2023/03/21 05:54:22;;;;;;;34.83;19.77;;;;;;;;;;5022054;28;20262;-67
2023/03/21 05:56:47;;;;;;;31.30;19.48;;;;;;;;;;5022706;28;20574;-67
2023/03/21 05:59:12;;;;;;;30.83;17.55;;;;;;;;;;5026087;28;20244;-67
2023/03/21 06:01:38;;;;;;;31.23;17.45;;;;;;;;;;5020778;28;20789;-67
2023/03/21 06:04:03;;;;;;;34.78;17.33;;;;;;;;;;5019443;28;20293;-67
2023/03/21 06:06:28;;;;;;;31.30;18.10;;;;;;;;;;5023444;28;20190;-67
2023/03/21 06:08:54;;;;;;;31.77;17.27;;;;;;;;;;5024762;28;20269;-66
2023/03/21 06:11:27;;;;;;;34.85;17.05;;;;;;;;;;5025216;28;20665;-66
2023/03/21 06:13:52;;;;;;;27.88;15.38;;;;;;;;;;5025343;28;20206;-67
2023/03/21 06:16:18;;;;;;;27.05;15.70;;;;;;;;;;5022625;28;20209;-66
2023/03/21 06:18:43;;;;;;;32.75;16.00;;;;;;;;;;5014834;28;20195;-66
2023/03/21 06:21:09;;;;;;;29.95;15.77;;;;;;;;;;5021666;28;20661;-65
2023/03/21 06:23:36;;;;;;;35.63;16.17;;;;;;;;;;5023499;28;20201;-66
2023/03/21 06:26:02;;;;;;;31.50;15.93;;;;;;;;;;5018869;28;20226;-66
2023/03/21 06:28:27;;;;;;;29.83;14.68;;;;;;;;;;5010934;28;20238;-66
2023/03/21 06:30:53;;;;;;;28.85;14.50;;;;;;;;;;5028735;28;20240;-66
2023/03/21 06:33:18;;;;;;;40.10;17.80;;;;;;;;;;5028464;28;20669;-66
2023/03/21 06:35:44;;;;;;;32.40;15.38;;;;;;;;;;5012805;28;20359;-68
2023/03/21 06:38:10;;;;;;;29.73;15.02;;;;;;;;;;5022826;28;20186;-67
2023/03/21 06:40:37;;;;;;;25.52;14.55;;;;;;;;;;5021372;28;20625;-69
2023/03/21 06:43:03;;;;;;;32.78;14.93;;;;;;;;;;5018718;28;20821;-69
2023/03/21 06:45:28;;;;;;;35.08;15.63;;;;;;;;;;5029994;28;20221;-70
2023/03/21 06:47:53;;;;;;;32.25;14.68;;;;;;;;;;5028052;28;20559;-68
2023/03/21 06:50:19;;;;;;;28.67;15.23;;;;;;;;;;5022125;28;20206;-68
2023/03/21 06:52:44;;;;;;;31.27;15.48;;;;;;;;;;5025981;28;20190;-69
2023/03/21 06:55:10;;;;;;;26.13;14.27;;;;;;;;;;5028085;28;20210;-69
2023/03/21 06:57:35;;;;;;;25.30;14.35;;;;;;;;;;5016572;28;20227;-68
2023/03/21 07:00:04;;;;;;;31.05;14.45;;;;;;;;;;5017870;28;20258;-68
2023/03/21 07:02:30;;;;;;;31.67;14.68;;;;;;;;;;5024151;28;20569;-68
2023/03/21 07:04:55;;;;;;;27.77;15.23;;;;;;;;;;5015292;28;20268;-68
2023/03/21 07:07:25;;;;;;;29.80;14.95;;;;;;;;;;5015755;28;20740;-68
2023/03/21 07:09:50;;;;;;;27.77;13.73;;;;;;;;;;5025847;28;20186;-68
2023/03/21 07:12:16;;;;;;;31.27;14.98;;;;;;;;;;5028095;28;20181;-68
2023/03/21 07:14:41;;;;;;;26.00;13.98;;;;;;;;;;5016491;28;20269;-67
2023/03/21 07:17:07;;;;;;;25.23;13.30;;;;;;;;;;5024313;28;20482;-67
2023/03/21 07:19:32;;;;;;;29.88;14.07;;;;;;;;;;5009641;28;20677;-67
2023/03/21 07:22:00;;;;;;;28.38;13.57;;;;;;;;;;5022056;28;20258;-67
2023/03/21 07:24:26;;;;;;;30.00;14.27;;;;;;;;;;5009474;28;20686;-67
2023/03/21 07:26:52;;;;;;;32.90;14.50;;;;;;;;;;5024975;28;20664;-67
2023/03/21 07:29:20;;;;;;;27.65;14.30;;;;;;;;;;5025345;28;20198;-67
2023/03/21 07:31:45;;;;;;;35.13;14.07;;;;;;;;;;5025418;28;20552;-67
2023/03/21 07:34:11;;;;;;;25.25;13.70;;;;;;;;;;5024189;28;20285;-67
2023/03/21 07:36:37;;;;;;;28.98;13.18;;;;;;;;;;5017152;28;20575;-67
2023/03/21 07:39:03;;;;;;;20.25;12.50;;;;;;;;;;5029210;28;20767;-67
2023/03/21 07:41:28;;;;;;;26.83;13.13;;;;;;;;;;5032402;28;20290;-68
2023/03/21 07:43:54;;;;;;;25.40;12.80;;;;;;;;;;5020330;28;20419;-67
2023/03/21 07:46:19;;;;;;;26.23;12.98;;;;;;;;;;5019747;28;20249;-68
2023/03/21 07:48:44;;;;;;;29.40;14.05;;;;;;;;;;5025731;28;20218;-68
2023/03/21 07:51:10;;;;;;;24.55;12.73;;;;;;;;;;5023548;28;20221;-68
2023/03/21 07:53:35;;;;;;;29.20;12.88;;;;;;;;;;5014079;28;20650;-68
2023/03/21 07:56:01;;;;;;;26.60;14.00;;;;;;;;;;5029387;28;20182;-69
2023/03/21 07:58:27;;;;;;;27.63;14.40;;;;;;;;;;5026874;28;20273;-68
2023/03/21 08:00:54;;;;;;;26.25;13.55;;;;;;;;;;5028689;28;20811;-69
2023/03/21 08:03:20;;;;;;;21.90;12.43;;;;;;;;;;5021768;28;20190;-69
2023/03/21 08:05:45;;;;;;;21.38;11.88;;;;;;;;;;5023739;28;20714;-68
2023/03/21 08:08:11;;;;;;;26.98;12.93;;;;;;;;;;5023649;28;20190;-68
2023/03/21 08:10:36;;;;;;;23.83;12.82;;;;;;;;;;5019052;28;20183;-68
2023/03/21 08:13:02;;;;;;;29.50;12.85;;;;;;;;;;5014401;28;20194;-69
2023/03/21 08:15:28;;;;;;;23.45;12.18;;;;;;;;;;5019538;28;20273;-68
2023/03/21 08:17:53;;;;;;;26.60;12.27;;;;;;;;;;5028660;28;20272;-68
2023/03/21 08:20:20;;;;;;;27.88;12.60;;;;;;;;;;5024194;28;20190;-68
2023/03/21 08:22:47;;;;;;;21.98;11.63;;;;;;;;;;5019287;28;20236;-68
2023/03/21 08:25:14;;;;;;;23.17;11.52;;;;;;;;;;5020908;28;20241;-67
2023/03/21 08:27:41;;;;;;;24.38;12.45;;;;;;;;;;5017559;28;20538;-68
2023/03/21 08:30:09;;;;;;;21.33;11.85;;;;;;;;;;5023676;28;20306;-67
2023/03/21 08:32:37;;;;;;;24.95;11.57;;;;;;;;;;5020486;28;20286;-67
2023/03/21 08:35:04;;;;;;;30.67;13.00;;;;;;;;;;5015958;28;20222;-67
2023/03/21 08:37:30;;;;;;;28.60;11.93;;;;;;;;;;5011882;28;20218;-67
2023/03/21 08:39:55;;;;;;;20.77;11.20;;;;;;;;;;5011635;28;20221;-67
2023/03/21 08:42:22;;;;;;;23.48;11.07;;;;;;;;;;5014411;28;20245;-67
2023/03/21 08:44:48;;;;;;;25.42;11.40;;;;;;;;;;5010510;28;20217;-67
2023/03/21 08:47:13;;;;;;;24.35;11.13;;;;;;;;;;5026181;28;20209;-67
2023/03/21 08:49:40;;;;;;;25.02;11.35;;;;;;;;;;5012414;28;20191;-67
2023/03/21 08:52:05;;;;;;;28.02;11.02;;;;;;;;;;5012991;28;20274;-67
2023/03/21 08:54:31;;;;;;;21.13;9.70;;;;;;;;;;5016718;28;20277;-67
2023/03/21 08:56:56;;;;;;;26.50;10.63;;;;;;;;;;5022408;28;20194;-67
2023/03/21 08:59:27;;;;;;;20.84;9.62;;;;;;;;;;4511887;28;10002880;-67
2023/03/21 09:01:52;;;;;;;18.80;8.82;;;;;;;;;;5016717;28;20202;-66
2023/03/21 09:04:19;;;;;;;20.20;9.40;;;;;;;;;;5016440;28;20221;-67
2023/03/21 09:06:47;;;;;;;20.75;10.45;;;;;;;;;;5012573;28;20204;-67
2023/03/21 09:09:13;;;;;;;22.20;9.93;;;;;;;;;;5010265;28;20272;-67
2023/03/21 09:11:38;;;;;;;18.33;9.68;;;;;;;;;;5008819;28;20222;-67
2023/03/21 09:14:04;;;;;;;23.67;10.07;;;;;;;;;;5011150;28;20270;-66
2023/03/21 09:16:30;;;;;;;25.50;10.00;;;;;;;;;;5016943;28;20637;-66
2023/03/21 09:18:57;;;;;;;18.33;9.10;;;;;;;;;;5009972;28;20197;-66
2023/03/21 09:21:24;;;;;;;20.08;9.77;;;;;;;;;;5013451;28;20265;-67
2023/03/21 09:23:51;;;;;;;20.48;9.55;;;;;;;;;;5023302;28;20217;-67
2023/03/21 09:26:18;;;;;;;28.55;10.50;;;;;;;;;;5023213;28;20650;-67
2023/03/21 09:28:45;;;;;;;23.05;9.82;;;;;;;;;;5021347;28;20937;-67
2023/03/21 09:31:11;;;;;;;30.65;11.70;;;;;;;;;;5019936;28;20204;-67
2023/03/21 09:33:38;;;;;;;21.77;11.00;;;;;;;;;;5017969;28;20195;-67
2023/03/21 09:36:05;;;;;;;21.20;10.18;;;;;;;;;;5023684;28;20669;-68
2023/03/21 09:38:35;;;;;;;26.88;10.30;;;;;;;;;;5029091;28;20637;-68
2023/03/21 09:41:18;;;;;;;22.05;10.50;;;;;;;;;;5029515;28;20209;-67
2023/03/21 09:44:16;;;;;;;20.65;9.30;;;;;;;;;;5024375;28;20729;-68
2023/03/21 09:46:44;;;;;;;20.83;9.75;;;;;;;;;;5014511;28;20191;-68
2023/03/21 09:49:24;;;;;;;23.27;10.13;;;;;;;;;;5015617;28;20292;-68
2023/03/21 09:51:53;;;;;;;17.98;9.98;;;;;;;;;;5018479;28;20551;-68
2023/03/21 09:54:27;;;;;;;21.52;9.80;;;;;;;;;;5014335;28;20248;-68
2023/03/21 09:56:57;;;;;;;17.75;9.07;;;;;;;;;;5018103;28;20197;-68
2023/03/21 09:59:36;;;;;;;18.27;9.40;;;;;;;;;;5012444;28;20466;-68
2023/03/21 10:02:15;;;;;;;15.80;9.15;;;;;;;;;;5022716;28;20639;-68
2023/03/21 10:04:42;;;;;;;19.70;9.38;;;;;;;;;;5004143;28;20290;-67
2023/03/21 10:07:14;;;;;;;17.85;9.32;;;;;;;;;;5011090;28;20461;-68
2023/03/21 10:09:41;;;;;;;19.80;8.80;;;;;;;;;;5009169;28;20190;-68
2023/03/21 10:12:18;;;;;;;18.02;9.35;;;;;;;;;;5020853;28;20240;-69
2023/03/21 10:14:47;;;;;;;20.10;9.18;;;;;;;;;;5021444;28;20232;-69
2023/03/21 10:17:25;;;;;;;21.10;9.40;;;;;;;;;;5005453;28;20186;-68
2023/03/21 10:20:00;;;;;;;15.32;8.98;;;;;;;;;;5011401;28;20382;-68
2023/03/21 10:22:25;;;;;;;15.77;8.18;;;;;;;;;;5013961;28;20269;-70
2023/03/21 10:24:50;;;;;;;16.95;8.27;;;;;;;;;;5009027;28;20317;-70
2023/03/21 10:27:16;;;;;;;16.98;8.90;;;;;;;;;;5019303;28;20328;-69
2023/03/21 10:29:43;;;;;;;19.90;8.18;;;;;;;;;;5021822;28;20200;-69
2023/03/21 10:32:13;;;;;;;16.08;7.88;;;;;;;;;;5009094;28;20190;-69
2023/03/21 10:34:45;;;;;;;18.92;7.95;;;;;;;;;;5026533;28;20677;-67
2023/03/21 10:37:13;;;;;;;16.80;7.85;;;;;;;;;;5018522;28;20202;-69
2023/03/21 10:39:47;;;;;;;19.67;8.43;;;;;;;;;;5031686;28;20740;-66
2023/03/21 10:42:29;;;;;;;17.33;8.13;;;;;;;;;;5014734;28;20526;-67
2023/03/21 10:44:56;;;;;;;13.75;7.35;;;;;;;;;;5019322;28;20217;-67
2023/03/21 10:47:28;;;;;;;17.45;7.60;;;;;;;;;;5017524;28;20626;-66
2023/03/21 10:49:54;;;;;;;20.48;9.20;;;;;;;;;;5014671;28;20249;-67
2023/03/21 10:52:25;;;;;;;15.13;7.72;;;;;;;;;;5022230;28;20202;-67
2023/03/21 10:55:24;;;;;;;15.57;8.23;;;;;;;;;;5003505;28;20540;-66
2023/03/21 10:57:56;;;;;;;16.42;8.07;;;;;;;;;;5008034;28;20240;-65
2023/03/21 11:00:26;;;;;;;15.88;7.47;;;;;;;;;;5018088;28;20205;-67
2023/03/21 11:02:53;;;;;;;16.13;7.95;;;;;;;;;;5019587;28;20251;-67
2023/03/21 11:05:26;;;;;;;19.45;7.70;;;;;;;;;;5018514;28;20207;-66
2023/03/21 11:08:18;;;;;;;16.20;7.10;;;;;;;;;;5018200;28;20197;-67
2023/03/21 11:11:08;;;;;;;14.88;7.47;;;;;;;;;;5020839;28;20206;-67
2023/03/21 11:13:42;;;;;;;15.68;6.90;;;;;;;;;;5013800;28;20203;-66
2023/03/21 11:16:21;;;;;;;13.52;7.13;;;;;;;;;;5029637;28;20276;-67
2023/03/21 11:18:55;;;;;;;17.45;7.95;;;;;;;;;;5025965;28;20215;-66
2023/03/21 11:21:21;;;;;;;17.70;7.28;;;;;;;;;;5023325;28;20182;-66
2023/03/21 11:23:48;;;;;;;16.52;7.72;;;;;;;;;;5018025;28;20199;-67
2023/03/21 11:26:26;;;;;;;14.15;7.38;;;;;;;;;;5024072;28;20190;-67
2023/03/21 11:28:53;;;;;;;17.13;7.82;;;;;;;;;;5023802;28;20229;-67
2023/03/21 11:31:20;;;;;;;15.55;7.80;;;;;;;;;;5033059;28;20244;-67
2023/03/21 11:33:55;;;;;;;13.23;7.80;;;;;;;;;;5018681;28;20203;-67
2023/03/21 11:36:21;;;;;;;11.77;6.93;;;;;;;;;;5026603;28;20320;-67
2023/03/21 11:38:56;;;;;;;11.73;6.85;;;;;;;;;;5025722;28;20269;-67
2023/03/21 11:41:30;;;;;;;13.52;7.10;;;;;;;;;;5028327;28;20221;-67
2023/03/21 11:43:56;;;;;;;13.63;6.53;;;;;;;;;;5019989;28;20189;-67
2023/03/21 11:46:24;;;;;;;14.88;6.85;;;;;;;;;;5024218;28;20182;-67
2023/03/21 11:48:50;;;;;;;12.55;7.43;;;;;;;;;;5022242;28;20245;-68
2023/03/21 11:51:47;;;;;;;14.32;7.75;;;;;;;;;;5015281;28;20218;-67
2023/03/21 11:54:18;;;;;;;16.60;7.15;;;;;;;;;;5014440;28;20541;-67
2023/03/21 11:56:46;;;;;;;12.82;6.72;;;;;;;;;;5009762;28;20183;-67
2023/03/21 11:59:32;;;;;;;13.30;6.65;;;;;;;;;;5014598;28;20217;-67
2023/03/21 12:02:12;;;;;;;13.65;6.60;;;;;;;;;;5012514;28;20767;-67
2023/03/21 12:04:43;;;;;;;13.93;7.07;;;;;;;;;;5029282;28;20226;-66
2023/03/21 12:07:50;;;;;;;16.35;6.88;;;;;;;;;;5028602;28;20273;-66
2023/03/21 12:10:37;;;;;;;10.65;6.90;;;;;;;;;;5025017;28;20241;-67
2023/03/21 12:13:30;;;;;;;11.13;6.43;;;;;;;;;;5021099;28;20528;-66
2023/03/21 12:16:25;;;;;;;13.73;6.50;;;;;;;;;;5015970;28;20194;-66
2023/03/21 12:19:11;;;;;;;14.27;6.80;;;;;;;;;;5020238;28;20209;-66
2023/03/21 12:21:50;;;;;;;14.38;6.38;;;;;;;;;;5022142;28;20190;-66
2023/03/21 12:24:21;;;;;;;12.98;6.18;;;;;;;;;;5024849;28;20225;-66
2023/03/21 12:27:08;;;;;;;13.63;6.43;;;;;;;;;;5023735;28;20655;-66
2023/03/21 12:29:39;;;;;;;11.93;5.85;;;;;;;;;;5033970;28;20190;-66
2023/03/21 12:32:10;;;;;;;11.73;5.88;;;;;;;;;;5023977;28;20201;-66
2023/03/21 12:34:59;;;;;;;11.60;5.20;;;;;;;;;;5028437;28;20190;-66
2023/03/21 12:37:58;;;;;;;10.32;5.47;;;;;;;;;;5024081;28;20269;-66
2023/03/21 12:40:51;;;;;;;10.38;5.75;;;;;;;;;;5020855;28;20931;-66
2023/03/21 12:43:32;;;;;;;10.73;5.63;;;;;;;;;;5018349;28;20430;-66
2023/03/21 12:46:04;;;;;;;13.25;5.63;;;;;;;;;;5027883;28;20210;-66
2023/03/21 12:48:42;;;;;;;12.45;5.45;;;;;;;;;;5022219;28;20282;-66
2023/03/21 12:51:12;;;;;;;12.10;5.53;;;;;;;;;;5016372;28;20265;-66
2023/03/21 12:53:52;;;;;;;10.40;5.10;;;;;;;;;;5025767;28;20214;-66
2023/03/21 12:56:29;;;;;;;8.82;5.28;;;;;;;;;;5012161;28;20626;-66
2023/03/21 12:59:07;;;;;;;9.68;4.70;;;;;;;;;;5007375;28;20201;-66
2023/03/21 13:01:37;;;;;;;10.55;5.22;;;;;;;;;;5020949;28;20220;-66
2023/03/21 13:04:26;;;;;;;9.20;4.65;;;;;;;;;;5026231;28;20190;-66
2023/03/21 13:06:54;;;;;;;9.20;4.40;;;;;;;;;;5018790;28;20673;-66
2023/03/21 13:09:35;;;;;;;7.13;4.55;;;;;;;;;;5017287;28;20225;-66
2023/03/21 13:12:14;;;;;;;10.32;4.55;;;;;;;;;;5022493;28;20462;-66
2023/03/21 13:15:01;;;;;;;12.35;4.57;;;;;;;;;;5009735;28;20197;-66
2023/03/21 13:17:43;;;;;;;11.75;5.07;;;;;;;;;;5012736;28;20754;-66
2023/03/21 13:20:25;;;;;;;8.85;4.40;;;;;;;;;;5014798;28;20187;-66
2023/03/21 13:22:51;;;;;;;11.68;5.28;;;;;;;;;;5015836;28;20607;-66
2023/03/21 13:25:19;;;;;;;9.93;4.90;;;;;;;;;;5014849;28;20233;-66
2023/03/21 13:28:00;;;;;;;9.55;4.55;;;;;;;;;;5014637;28;20245;-66
2023/03/21 13:30:28;;;;;;;10.32;4.53;;;;;;;;;;5015934;28;20274;-66
2023/03/21 13:33:13;;;;;;;8.90;4.00;;;;;;;;;;5013590;28;20266;-66
2023/03/21 13:35:41;;;;;;;8.73;4.30;;;;;;;;;;5011431;28;20578;-66
2023/03/21 13:38:15;;;;;;;12.38;4.80;;;;;;;;;;5011603;28;20244;-67
2023/03/21 13:41:04;;;;;;;11.13;4.88;;;;;;;;;;5023459;28;20197;-66
2023/03/21 13:43:41;;;;;;;10.05;4.97;;;;;;;;;;5022012;28;20667;-66
2023/03/21 13:46:12;;;;;;;8.38;4.57;;;;;;;;;;5026869;28;20217;-66
2023/03/21 13:48:52;;;;;;;10.18;4.57;;;;;;;;;;5023243;28;20635;-66
2023/03/21 13:51:27;;;;;;;9.63;4.38;;;;;;;;;;5026390;28;20185;-66
2023/03/21 13:54:10;;;;;;;12.30;4.97;;;;;;;;;;5014655;28;20202;-66
2023/03/21 13:56:47;;;;;;;8.43;4.85;;;;;;;;;;5023110;28;20228;-67
2023/03/21 13:59:17;;;;;;;9.90;4.43;;;;;;;;;;5024748;28;20276;-66
2023/03/21 14:02:02;;;;;;;10.00;5.03;;;;;;;;;;5018797;28;20214;-66
2023/03/21 14:04:31;;;;;;;10.15;4.45;;;;;;;;;;5017226;28;20650;-66
2023/03/21 14:07:23;;;;;;;9.00;4.70;;;;;;;;;;5024362;28;20550;-66
2023/03/21 14:09:52;;;;;;;8.93;4.35;;;;;;;;;;5019631;28;20367;-67
2023/03/21 14:12:35;;;;;;;9.13;4.25;;;;;;;;;;5022900;28;20195;-66
2023/03/21 14:15:31;;;;;;;12.40;4.47;;;;;;;;;;5025783;28;20233;-66
2023/03/21 14:18:03;;;;;;;8.20;4.47;;;;;;;;;;5024609;28;20248;-66
2023/03/21 14:20:37;;;;;;;9.80;4.20;;;;;;;;;;5023903;28;20645;-66
2023/03/21 14:23:05;;;;;;;8.10;4.20;;;;;;;;;;5026100;28;20198;-66
2023/03/21 14:25:36;;;;;;;8.93;4.20;;;;;;;;;;5020124;28;20705;-66
2023/03/21 14:28:05;;;;;;;11.75;4.15;;;;;;;;;;5016506;28;20233;-66
2023/03/21 14:30:37;;;;;;;11.45;4.70;;;;;;;;;;5019701;28;20218;-66
2023/03/21 14:33:12;;;;;;;8.00;4.13;;;;;;;;;;5024019;28;20263;-68
2023/03/21 14:35:40;;;;;;;9.73;4.40;;;;;;;;;;5017276;28;20263;-66
2023/03/21 14:38:07;;;;;;;11.02;4.22;;;;;;;;;;5022228;28;20209;-67
2023/03/21 14:40:34;;;;;;;8.25;4.35;;;;;;;;;;5023025;28;20222;-66
2023/03/21 14:43:04;;;;;;;8.75;4.30;;;;;;;;;;5020137;28;20193;-67
2023/03/21 14:45:32;;;;;;;11.13;4.18;;;;;;;;;;5019271;28;20619;-66